sensor_id;sensor_type;location;lat;lon;timestamp;pressure;altitude;pressure_sealevel;temperature;humidity
4858;BME280;58975;51.978;8.472;2023-05-09T00:03:03;100636.50;;;13.29;100.00
4858;BME280;58975;51.978;8.472;2023-05-09T00:08:01;100631.16;;;13.29;100.00
4858;BME280;58975;51.978;8.472;2023-05-09T00:12:57;100628.47;;;13.29;100.00
4858;BME280;58975;51.978;8.472;2023-05-09T00:17:54;100630.91;;;13.32;100.00
4858;BME280;58975;51.978;8.472;2023-05-09T00:22:51;100619.47;;;13.30;100.00
4858;BME280;58975;51.978;8.472;2023-05-09T00:27:47;100616.22;;;13.17;100.00
4858;BME280;58975;51.978;8.472;2023-05-09T00:32:44;100614.06;;;13.11;100.00
4858;BME280;58975;51.978;8.472;2023-05-09T00:37:40;100594.38;;;13.12;100.00
4858;BME280;58975;51.978;8.472;2023-05-09T00:42:37;100599.31;;;13.16;100.00
4858;BME280;58975;51.978;8.472;2023-05-09T00:47:34;100581.56;;;13.15;100.00
4858;BME280;58975;51.978;8.472;2023-05-09T00:52:31;100582.94;;;13.10;100.00
4858;BME280;58975;51.978;8.472;2023-05-09T00:57:28;100578.41;;;13.01;100.00
4858;BME280;58975;51.978;8.472;2023-05-09T01:02:25;100562.88;;;12.95;100.00
4858;BME280;58975;51.978;8.472;2023-05-09T01:07:32;100568.19;;;12.85;100.00
4858;BME280;58975;51.978;8.472;2023-05-09T01:12:46;100562.22;;;12.72;100.00
4858;BME280;58975;51.978;8.472;2023-05-09T01:17:53;100554.75;;;12.66;100.00
4858;BME280;58975;51.978;8.472;2023-05-09T01:23:09;100548.38;;;12.57;100.00
4858;BME280;58975;51.978;8.472;2023-05-09T01:28:13;100542.13;;;12.47;100.00
4858;BME280;58975;51.978;8.472;2023-05-09T01:33:13;100539.72;;;12.44;100.00
4858;BME280;58975;51.978;8.472;2023-05-09T01:38:19;100528.84;;;12.36;100.00
4858;BME280;58975;51.978;8.472;2023-05-09T01:43:18;100522.34;;;12.29;100.00
4858;BME280;58975;51.978;8.472;2023-05-09T01:48:15;100530.16;;;12.21;100.00
4858;BME280;58975;51.978;8.472;2023-05-09T01:53:12;100520.41;;;12.10;100.00
4858;BME280;58975;51.978;8.472;2023-05-09T01:58:09;100516.59;;;12.13;100.00
4858;BME280;58975;51.978;8.472;2023-05-09T02:03:06;100521.09;;;12.12;100.00
4858;BME280;58975;51.978;8.472;2023-05-09T02:08:04;100513.81;;;12.14;100.00
4858;BME280;58975;51.978;8.472;2023-05-09T02:13:00;100506.91;;;12.12;100.00
4858;BME280;58975;51.978;8.472;2023-05-09T02:17:57;100509.25;;;12.05;100.00
4858;BME280;58975;51.978;8.472;2023-05-09T02:22:53;100507.25;;;11.98;100.00
4858;BME280;58975;51.978;8.472;2023-05-09T02:27:50;100493.44;;;11.93;100.00
4858;BME280;58975;51.978;8.472;2023-05-09T02:32:51;100493.09;;;11.86;100.00
4858;BME280;58975;51.978;8.472;2023-05-09T02:37:48;100486.34;;;11.82;100.00
4858;BME280;58975;51.978;8.472;2023-05-09T02:42:45;100491.66;;;11.82;100.00
4858;BME280;58975;51.978;8.472;2023-05-09T02:47:41;100493.50;;;11.81;100.00
4858;BME280;58975;51.978;8.472;2023-05-09T02:52:38;100486.72;;;11.77;100.00
4858;BME280;58975;51.978;8.472;2023-05-09T02:57:34;100486.47;;;11.69;100.00
4858;BME280;58975;51.978;8.472;2023-05-09T03:02:31;100488.94;;;11.61;100.00
4858;BME280;58975;51.978;8.472;2023-05-09T03:07:28;100481.19;;;11.58;100.00
4858;BME280;58975;51.978;8.472;2023-05-09T03:12:25;100471.44;;;11.48;100.00
4858;BME280;58975;51.978;8.472;2023-05-09T03:17:21;100482.22;;;11.46;100.00
4858;BME280;58975;51.978;8.472;2023-05-09T03:22:18;100470.84;;;11.44;100.00
4858;BME280;58975;51.978;8.472;2023-05-09T03:27:14;100475.91;;;11.47;100.00
4858;BME280;58975;51.978;8.472;2023-05-09T03:32:11;100464.59;;;11.55;100.00
4858;BME280;58975;51.978;8.472;2023-05-09T03:37:10;100450.63;;;11.62;100.00
4858;BME280;58975;51.978;8.472;2023-05-09T03:42:06;100451.69;;;11.71;100.00
4858;BME280;58975;51.978;8.472;2023-05-09T03:47:03;100456.09;;;11.72;100.00
4858;BME280;58975;51.978;8.472;2023-05-09T03:51:59;100466.34;;;11.76;100.00
4858;BME280;58975;51.978;8.472;2023-05-09T03:56:56;100450.69;;;11.83;100.00
4858;BME280;58975;51.978;8.472;2023-05-09T04:01:52;100445.66;;;11.90;100.00
4858;BME280;58975;51.978;8.472;2023-05-09T04:06:49;100451.06;;;11.99;100.00
4858;BME280;58975;51.978;8.472;2023-05-09T04:11:45;100445.66;;;11.90;100.00
4858;BME280;58975;51.978;8.472;2023-05-09T04:16:42;100447.84;;;11.84;100.00
4858;BME280;58975;51.978;8.472;2023-05-09T04:21:38;100442.13;;;11.89;100.00
4858;BME280;58975;51.978;8.472;2023-05-09T04:26:35;100444.16;;;11.97;100.00
4858;BME280;58975;51.978;8.472;2023-05-09T04:31:33;100433.41;;;12.08;100.00
4858;BME280;58975;51.978;8.472;2023-05-09T04:36:30;100434.75;;;12.23;100.00
4858;BME280;58975;51.978;8.472;2023-05-09T04:41:29;100432.97;;;12.33;100.00
4858;BME280;58975;51.978;8.472;2023-05-09T04:46:26;100428.56;;;12.53;100.00
4858;BME280;58975;51.978;8.472;2023-05-09T04:51:23;100431.16;;;12.73;100.00
4858;BME280;58975;51.978;8.472;2023-05-09T04:56:19;100441.75;;;12.94;100.00
4858;BME280;58975;51.978;8.472;2023-05-09T05:01:17;100428.19;;;13.16;100.00
4858;BME280;58975;51.978;8.472;2023-05-09T05:06:13;100419.03;;;13.38;100.00
4858;BME280;58975;51.978;8.472;2023-05-09T05:11:10;100426.91;;;13.59;100.00
4858;BME280;58975;51.978;8.472;2023-05-09T05:16:06;100429.00;;;13.74;100.00
4858;BME280;58975;51.978;8.472;2023-05-09T05:21:03;100420.81;;;13.86;100.00
4858;BME280;58975;51.978;8.472;2023-05-09T05:25:59;100417.16;;;13.87;100.00
4858;BME280;58975;51.978;8.472;2023-05-09T05:30:55;100407.25;;;13.97;100.00
4858;BME280;58975;51.978;8.472;2023-05-09T05:35:52;100396.50;;;14.16;100.00
4858;BME280;58975;51.978;8.472;2023-05-09T05:40:48;100397.41;;;14.44;100.00
4858;BME280;58975;51.978;8.472;2023-05-09T05:45:45;100386.69;;;14.71;100.00
4858;BME280;58975;51.978;8.472;2023-05-09T05:50:41;100384.59;;;14.92;100.00
4858;BME280;58975;51.978;8.472;2023-05-09T05:55:37;100373.84;;;15.10;100.00
4858;BME280;58975;51.978;8.472;2023-05-09T06:00:34;100369.34;;;15.64;100.00
4858;BME280;58975;51.978;8.472;2023-05-09T06:05:30;100374.38;;;16.18;100.00
4858;BME280;58975;51.978;8.472;2023-05-09T06:10:27;100373.03;;;16.56;100.00
4858;BME280;58975;51.978;8.472;2023-05-09T06:15:23;100370.47;;;16.80;100.00
4858;BME280;58975;51.978;8.472;2023-05-09T06:20:20;100369.22;;;16.67;100.00
4858;BME280;58975;51.978;8.472;2023-05-09T06:25:16;100368.47;;;16.48;100.00
4858;BME280;58975;51.978;8.472;2023-05-09T06:30:13;100363.25;;;16.89;100.00
4858;BME280;58975;51.978;8.472;2023-05-09T06:35:21;100358.38;;;16.84;100.00
4858;BME280;58975;51.978;8.472;2023-05-09T06:40:18;100347.28;;;16.95;100.00
4858;BME280;58975;51.978;8.472;2023-05-09T06:45:14;100341.44;;;17.08;100.00
4858;BME280;58975;51.978;8.472;2023-05-09T06:50:11;100336.72;;;17.26;100.00
4858;BME280;58975;51.978;8.472;2023-05-09T06:55:08;100327.66;;;17.43;100.00
4858;BME280;58975;51.978;8.472;2023-05-09T07:00:05;100327.31;;;17.79;100.00
4858;BME280;58975;51.978;8.472;2023-05-09T07:05:02;100307.25;;;17.73;100.00
4858;BME280;58975;51.978;8.472;2023-05-09T07:09:59;100302.22;;;17.54;100.00
4858;BME280;58975;51.978;8.472;2023-05-09T07:15:07;100298.03;;;17.43;100.00
4858;BME280;58975;51.978;8.472;2023-05-09T07:20:04;100291.53;;;18.01;100.00
4858;BME280;58975;51.978;8.472;2023-05-09T07:25:01;100287.19;;;17.84;100.00
4858;BME280;58975;51.978;8.472;2023-05-09T07:29:57;100288.59;;;17.56;100.00
4858;BME280;58975;51.978;8.472;2023-05-09T07:34:54;100276.47;;;17.76;100.00
4858;BME280;58975;51.978;8.472;2023-05-09T07:39:50;100260.06;;;18.32;100.00
4858;BME280;58975;51.978;8.472;2023-05-09T07:44:47;100257.22;;;18.87;100.00
4858;BME280;58975;51.978;8.472;2023-05-09T07:49:43;100254.03;;;19.07;100.00
4858;BME280;58975;51.978;8.472;2023-05-09T07:54:42;100251.22;;;19.00;100.00
4858;BME280;58975;51.978;8.472;2023-05-09T07:59:38;100240.47;;;19.29;100.00
4858;BME280;58975;51.978;8.472;2023-05-09T08:04:37;100235.66;;;19.02;100.00
4858;BME280;58975;51.978;8.472;2023-05-09T08:09:33;100236.03;;;18.99;100.00
4858;BME280;58975;51.978;8.472;2023-05-09T08:14:30;100232.09;;;18.87;100.00
4858;BME280;58975;51.978;8.472;2023-05-09T08:19:26;100223.28;;;18.93;100.00
4858;BME280;58975;51.978;8.472;2023-05-09T08:24:23;100208.38;;;19.20;100.00
4858;BME280;58975;51.978;8.472;2023-05-09T08:29:19;100203.22;;;19.48;100.00
4858;BME280;58975;51.978;8.472;2023-05-09T08:34:16;100212.00;;;19.42;100.00
4858;BME280;58975;51.978;8.472;2023-05-09T08:39:12;100209.38;;;19.56;100.00
4858;BME280;58975;51.978;8.472;2023-05-09T08:44:09;100195.28;;;19.46;100.00
4858;BME280;58975;51.978;8.472;2023-05-09T08:49:06;100202.91;;;19.43;100.00
4858;BME280;58975;51.978;8.472;2023-05-09T08:54:04;100189.34;;;19.51;100.00
4858;BME280;58975;51.978;8.472;2023-05-09T08:59:00;100201.03;;;19.28;100.00
4858;BME280;58975;51.978;8.472;2023-05-09T09:03:57;100183.78;;;19.15;100.00
4858;BME280;58975;51.978;8.472;2023-05-09T09:08:54;100184.31;;;18.73;100.00
4858;BME280;58975;51.978;8.472;2023-05-09T09:13:53;100174.25;;;19.04;100.00
4858;BME280;58975;51.978;8.472;2023-05-09T09:18:53;100165.53;;;18.79;100.00
4858;BME280;58975;51.978;8.472;2023-05-09T09:23:54;100165.50;;;19.02;100.00
4858;BME280;58975;51.978;8.472;2023-05-09T09:28:50;100151.63;;;19.43;100.00
4858;BME280;58975;51.978;8.472;2023-05-09T09:33:47;100143.75;;;19.18;100.00
4858;BME280;58975;51.978;8.472;2023-05-09T09:38:43;100149.53;;;19.30;100.00
4858;BME280;58975;51.978;8.472;2023-05-09T09:43:44;100141.16;;;19.40;100.00
4858;BME280;58975;51.978;8.472;2023-05-09T09:48:44;100130.16;;;19.41;100.00
4858;BME280;58975;51.978;8.472;2023-05-09T09:53:45;100127.75;;;19.61;100.00
4858;BME280;58975;51.978;8.472;2023-05-09T09:58:42;100109.00;;;19.74;100.00
4858;BME280;58975;51.978;8.472;2023-05-09T10:03:40;100125.22;;;19.74;100.00
4858;BME280;58975;51.978;8.472;2023-05-09T10:08:38;100103.59;;;19.74;100.00
4858;BME280;58975;51.978;8.472;2023-05-09T10:13:35;100097.31;;;19.88;100.00
4858;BME280;58975;51.978;8.472;2023-05-09T10:18:34;100090.09;;;19.74;100.00
4858;BME280;58975;51.978;8.472;2023-05-09T10:23:33;100093.06;;;19.79;100.00
4858;BME280;58975;51.978;8.472;2023-05-09T10:28:34;100080.78;;;19.76;100.00
4858;BME280;58975;51.978;8.472;2023-05-09T10:33:37;100074.28;;;19.92;100.00
4858;BME280;58975;51.978;8.472;2023-05-09T10:38:37;100063.31;;;20.15;100.00
4858;BME280;58975;51.978;8.472;2023-05-09T10:43:34;100056.31;;;20.42;100.00
4858;BME280;58975;51.978;8.472;2023-05-09T10:48:32;100049.00;;;20.98;100.00
4858;BME280;58975;51.978;8.472;2023-05-09T10:53:43;100034.00;;;21.23;100.00
4858;BME280;58975;51.978;8.472;2023-05-09T10:58:40;100027.28;;;21.66;100.00
4858;BME280;58975;51.978;8.472;2023-05-09T11:03:54;100015.19;;;21.69;100.00
4858;BME280;58975;51.978;8.472;2023-05-09T11:08:52;100004.47;;;21.35;100.00
4858;BME280;58975;51.978;8.472;2023-05-09T11:13:55;100007.19;;;21.41;100.00
4858;BME280;58975;51.978;8.472;2023-05-09T11:18:53;99992.94;;;21.19;100.00
4858;BME280;58975;51.978;8.472;2023-05-09T11:23:49;99993.34;;;21.16;100.00
4858;BME280;58975;51.978;8.472;2023-05-09T11:28:53;99986.41;;;21.55;100.00
4858;BME280;58975;51.978;8.472;2023-05-09T11:33:49;99983.47;;;21.56;100.00
4858;BME280;58975;51.978;8.472;2023-05-09T11:39:02;99977.25;;;21.62;100.00
4858;BME280;58975;51.978;8.472;2023-05-09T11:43:59;99964.84;;;22.34;100.00
4858;BME280;58975;51.978;8.472;2023-05-09T11:48:57;99958.53;;;22.59;100.00
4858;BME280;58975;51.978;8.472;2023-05-09T11:53:53;99946.66;;;22.28;100.00
4858;BME280;58975;51.978;8.472;2023-05-09T11:58:50;99939.78;;;22.32;100.00
4858;BME280;58975;51.978;8.472;2023-05-09T12:03:48;99934.34;;;22.45;100.00
4858;BME280;58975;51.978;8.472;2023-05-09T12:08:45;99928.50;;;22.41;96.80
4858;BME280;58975;51.978;8.472;2023-05-09T12:13:49;99912.41;;;22.53;96.27
4858;BME280;58975;51.978;8.472;2023-05-09T12:18:51;99912.28;;;22.99;100.00
4858;BME280;58975;51.978;8.472;2023-05-09T12:23:47;99907.97;;;22.78;92.22
4858;BME280;58975;51.978;8.472;2023-05-09T12:28:47;99900.72;;;23.17;94.22
4858;BME280;58975;51.978;8.472;2023-05-09T12:33:44;99896.72;;;22.81;88.96
4858;BME280;58975;51.978;8.472;2023-05-09T12:38:51;99897.19;;;22.39;91.48
4858;BME280;58975;51.978;8.472;2023-05-09T12:43:48;99881.56;;;22.98;90.00
4858;BME280;58975;51.978;8.472;2023-05-09T12:48:45;99883.59;;;23.09;81.97
4858;BME280;58975;51.978;8.472;2023-05-09T12:53:45;99869.44;;;23.45;84.76
4858;BME280;58975;51.978;8.472;2023-05-09T12:58:54;99873.69;;;22.90;86.74
4858;BME280;58975;51.978;8.472;2023-05-09T13:03:52;99863.88;;;22.89;89.09
4858;BME280;58975;51.978;8.472;2023-05-09T13:08:59;99856.72;;;23.33;89.65
4858;BME280;58975;51.978;8.472;2023-05-09T13:13:57;99835.97;;;23.45;83.37
4858;BME280;58975;51.978;8.472;2023-05-09T13:18:53;99832.25;;;23.71;83.18
4858;BME280;58975;51.978;8.472;2023-05-09T13:23:50;99820.84;;;23.80;81.41
4858;BME280;58975;51.978;8.472;2023-05-09T13:28:47;99818.91;;;23.63;80.74
4858;BME280;58975;51.978;8.472;2023-05-09T13:33:43;99801.53;;;23.88;84.02
4858;BME280;58975;51.978;8.472;2023-05-09T13:38:40;99788.59;;;24.27;76.09
4858;BME280;58975;51.978;8.472;2023-05-09T13:43:37;99786.53;;;23.30;79.94
4858;BME280;58975;51.978;8.472;2023-05-09T13:48:34;99779.22;;;22.54;85.23
4858;BME280;58975;51.978;8.472;2023-05-09T13:53:30;99782.16;;;21.95;90.81
4858;BME280;58975;51.978;8.472;2023-05-09T13:58:27;99778.78;;;21.74;99.51
4858;BME280;58975;51.978;8.472;2023-05-09T14:03:24;99781.31;;;21.55;98.94
4858;BME280;58975;51.978;8.472;2023-05-09T14:08:20;99779.66;;;21.54;100.00
4858;BME280;58975;51.978;8.472;2023-05-09T14:13:17;99783.81;;;21.24;100.00
4858;BME280;58975;51.978;8.472;2023-05-09T14:18:13;99775.75;;;19.11;100.00
4858;BME280;58975;51.978;8.472;2023-05-09T14:23:13;99766.38;;;18.35;100.00
4858;BME280;58975;51.978;8.472;2023-05-09T14:28:10;99761.56;;;18.67;100.00
4858;BME280;58975;51.978;8.472;2023-05-09T14:33:07;99751.75;;;19.02;100.00
4858;BME280;58975;51.978;8.472;2023-05-09T14:38:03;99742.75;;;19.65;100.00
4858;BME280;58975;51.978;8.472;2023-05-09T14:43:00;99737.19;;;20.07;100.00
4858;BME280;58975;51.978;8.472;2023-05-09T14:47:58;99739.13;;;19.79;100.00
4858;BME280;58975;51.978;8.472;2023-05-09T14:52:55;99729.66;;;19.62;100.00
4858;BME280;58975;51.978;8.472;2023-05-09T14:57:51;99722.41;;;19.69;100.00
4858;BME280;58975;51.978;8.472;2023-05-09T15:02:48;99717.44;;;19.66;100.00
4858;BME280;58975;51.978;8.472;2023-05-09T15:07:45;99723.63;;;19.60;100.00
4858;BME280;58975;51.978;8.472;2023-05-09T15:12:42;99717.56;;;19.92;100.00
4858;BME280;58975;51.978;8.472;2023-05-09T15:17:38;99701.84;;;20.09;100.00
4858;BME280;58975;51.978;8.472;2023-05-09T15:22:34;99702.75;;;20.22;100.00
4858;BME280;58975;51.978;8.472;2023-05-09T15:27:31;99694.50;;;20.31;100.00
4858;BME280;58975;51.978;8.472;2023-05-09T15:32:28;99687.41;;;20.29;100.00
4858;BME280;58975;51.978;8.472;2023-05-09T15:37:24;99693.22;;;20.26;100.00
4858;BME280;58975;51.978;8.472;2023-05-09T15:42:21;99680.75;;;20.32;100.00
4858;BME280;58975;51.978;8.472;2023-05-09T15:47:17;99672.22;;;20.28;100.00
4858;BME280;58975;51.978;8.472;2023-05-09T15:52:13;99678.63;;;20.27;100.00
4858;BME280;58975;51.978;8.472;2023-05-09T15:57:11;99673.16;;;20.08;100.00
4858;BME280;58975;51.978;8.472;2023-05-09T16:02:07;99664.00;;;20.09;100.00
4858;BME280;58975;51.978;8.472;2023-05-09T16:07:04;99666.53;;;20.10;100.00
4858;BME280;58975;51.978;8.472;2023-05-09T16:12:00;99672.28;;;19.94;100.00
4858;BME280;58975;51.978;8.472;2023-05-09T16:16:57;99673.97;;;19.33;100.00
4858;BME280;58975;51.978;8.472;2023-05-09T16:21:53;99669.88;;;18.88;100.00
4858;BME280;58975;51.978;8.472;2023-05-09T16:26:49;99654.97;;;18.50;100.00
4858;BME280;58975;51.978;8.472;2023-05-09T16:31:46;99656.06;;;18.34;100.00
4858;BME280;58975;51.978;8.472;2023-05-09T16:36:42;99642.25;;;18.08;100.00
4858;BME280;58975;51.978;8.472;2023-05-09T16:41:41;99639.28;;;18.17;100.00
4858;BME280;58975;51.978;8.472;2023-05-09T16:46:38;99628.78;;;18.22;100.00
4858;BME280;58975;51.978;8.472;2023-05-09T16:51:34;99631.38;;;18.16;100.00
4858;BME280;58975;51.978;8.472;2023-05-09T16:56:31;99620.25;;;18.04;100.00
4858;BME280;58975;51.978;8.472;2023-05-09T17:01:27;99621.97;;;17.90;100.00
4858;BME280;58975;51.978;8.472;2023-05-09T17:06:24;99619.47;;;17.89;100.00
4858;BME280;58975;51.978;8.472;2023-05-09T17:11:22;99624.53;;;17.63;100.00
4858;BME280;58975;51.978;8.472;2023-05-09T17:16:18;99625.88;;;17.15;100.00
4858;BME280;58975;51.978;8.472;2023-05-09T17:21:15;99638.53;;;16.77;100.00
4858;BME280;58975;51.978;8.472;2023-05-09T17:26:12;99646.06;;;16.59;100.00
4858;BME280;58975;51.978;8.472;2023-05-09T17:31:08;99634.16;;;16.30;100.00
4858;BME280;58975;51.978;8.472;2023-05-09T17:36:05;99628.56;;;16.09;100.00
4858;BME280;58975;51.978;8.472;2023-05-09T17:41:02;99620.25;;;15.96;100.00
4858;BME280;58975;51.978;8.472;2023-05-09T17:45:59;99615.66;;;15.82;100.00
4858;BME280;58975;51.978;8.472;2023-05-09T17:50:56;99617.41;;;15.67;100.00
4858;BME280;58975;51.978;8.472;2023-05-09T17:55:52;99617.09;;;15.53;100.00
4858;BME280;58975;51.978;8.472;2023-05-09T18:00:51;99624.84;;;15.48;100.00
4858;BME280;58975;51.978;8.472;2023-05-09T18:05:48;99638.09;;;15.42;100.00
4858;BME280;58975;51.978;8.472;2023-05-09T18:10:45;99637.44;;;15.40;100.00
4858;BME280;58975;51.978;8.472;2023-05-09T18:15:41;99648.78;;;15.58;100.00
4858;BME280;58975;51.978;8.472;2023-05-09T18:20:38;99634.53;;;15.57;100.00
4858;BME280;58975;51.978;8.472;2023-05-09T18:25:34;99629.19;;;15.41;100.00
4858;BME280;58975;51.978;8.472;2023-05-09T18:30:31;99627.53;;;15.40;100.00
4858;BME280;58975;51.978;8.472;2023-05-09T18:35:27;99641.09;;;15.55;100.00
4858;BME280;58975;51.978;8.472;2023-05-09T18:40:24;99642.91;;;15.63;100.00
4858;BME280;58975;51.978;8.472;2023-05-09T18:45:20;99648.47;;;15.45;100.00
4858;BME280;58975;51.978;8.472;2023-05-09T18:50:17;99643.34;;;15.27;100.00
4858;BME280;58975;51.978;8.472;2023-05-09T18:55:14;99650.91;;;15.15;100.00
4858;BME280;58975;51.978;8.472;2023-05-09T19:00:11;99657.47;;;15.13;100.00
4858;BME280;58975;51.978;8.472;2023-05-09T19:05:08;99669.19;;;15.12;100.00
4858;BME280;58975;51.978;8.472;2023-05-09T19:10:05;99672.72;;;15.04;100.00
4858;BME280;58975;51.978;8.472;2023-05-09T19:15:03;99677.59;;;14.93;100.00
4858;BME280;58975;51.978;8.472;2023-05-09T19:20:01;99676.59;;;14.70;100.00
4858;BME280;58975;51.978;8.472;2023-05-09T19:24:57;99674.88;;;14.52;100.00
4858;BME280;58975;51.978;8.472;2023-05-09T19:29:54;99698.97;;;14.36;100.00
4858;BME280;58975;51.978;8.472;2023-05-09T19:34:50;99721.19;;;14.29;100.00
4858;BME280;58975;51.978;8.472;2023-05-09T19:39:47;99732.69;;;14.13;100.00
4858;BME280;58975;51.978;8.472;2023-05-09T19:44:43;99737.19;;;14.04;100.00
4858;BME280;58975;51.978;8.472;2023-05-09T19:49:40;99753.91;;;13.98;100.00
4858;BME280;58975;51.978;8.472;2023-05-09T19:54:38;99762.75;;;13.99;100.00
4858;BME280;58975;51.978;8.472;2023-05-09T19:59:34;99753.53;;;13.93;100.00
4858;BME280;58975;51.978;8.472;2023-05-09T20:04:33;99754.69;;;13.91;100.00
4858;BME280;58975;51.978;8.472;2023-05-09T20:09:30;99760.38;;;13.96;100.00
4858;BME280;58975;51.978;8.472;2023-05-09T20:14:28;99761.13;;;14.06;100.00
4858;BME280;58975;51.978;8.472;2023-05-09T20:19:24;99762.41;;;13.94;100.00
4858;BME280;58975;51.978;8.472;2023-05-09T20:24:20;99752.16;;;13.89;100.00
4858;BME280;58975;51.978;8.472;2023-05-09T20:29:17;99751.00;;;13.92;100.00
4858;BME280;58975;51.978;8.472;2023-05-09T20:34:13;99756.13;;;14.11;100.00
4858;BME280;58975;51.978;8.472;2023-05-09T20:39:11;99758.28;;;14.15;100.00
4858;BME280;58975;51.978;8.472;2023-05-09T20:44:13;99774.91;;;14.19;100.00
4858;BME280;58975;51.978;8.472;2023-05-09T20:49:10;99761.16;;;14.14;100.00
4858;BME280;58975;51.978;8.472;2023-05-09T20:54:06;99767.47;;;14.05;100.00
4858;BME280;58975;51.978;8.472;2023-05-09T20:59:04;99749.34;;;13.91;100.00
4858;BME280;58975;51.978;8.472;2023-05-09T21:04:01;99746.63;;;13.83;100.00
4858;BME280;58975;51.978;8.472;2023-05-09T21:08:59;99748.53;;;13.98;100.00
4858;BME280;58975;51.978;8.472;2023-05-09T21:13:55;99737.34;;;14.03;100.00
4858;BME280;58975;51.978;8.472;2023-05-09T21:18:52;99732.66;;;14.05;100.00
4858;BME280;58975;51.978;8.472;2023-05-09T21:23:48;99730.69;;;14.07;100.00
4858;BME280;58975;51.978;8.472;2023-05-09T21:28:45;99724.47;;;14.06;100.00
4858;BME280;58975;51.978;8.472;2023-05-09T21:33:41;99710.25;;;14.06;100.00
4858;BME280;58975;51.978;8.472;2023-05-09T21:38:37;99709.25;;;14.07;100.00
4858;BME280;58975;51.978;8.472;2023-05-09T21:43:34;99699.53;;;14.06;100.00
4858;BME280;58975;51.978;8.472;2023-05-09T21:48:31;99686.50;;;14.11;100.00
4858;BME280;58975;51.978;8.472;2023-05-09T21:53:28;99681.28;;;14.01;100.00
4858;BME280;58975;51.978;8.472;2023-05-09T21:58:24;99669.72;;;13.93;100.00
4858;BME280;58975;51.978;8.472;2023-05-09T22:03:21;99661.16;;;13.89;100.00
4858;BME280;58975;51.978;8.472;2023-05-09T22:08:18;99654.09;;;13.72;100.00
4858;BME280;58975;51.978;8.472;2023-05-09T22:13:14;99647.50;;;13.58;100.00
4858;BME280;58975;51.978;8.472;2023-05-09T22:18:11;99649.16;;;13.51;100.00
4858;BME280;58975;51.978;8.472;2023-05-09T22:23:07;99654.22;;;13.62;100.00
4858;BME280;58975;51.978;8.472;2023-05-09T22:28:04;99665.94;;;13.69;100.00
4858;BME280;58975;51.978;8.472;2023-05-09T22:33:00;99660.59;;;13.69;100.00
4858;BME280;58975;51.978;8.472;2023-05-09T22:37:57;99662.28;;;13.70;100.00
4858;BME280;58975;51.978;8.472;2023-05-09T22:42:53;99668.13;;;13.74;100.00
4858;BME280;58975;51.978;8.472;2023-05-09T22:47:50;99658.84;;;13.52;100.00
4858;BME280;58975;51.978;8.472;2023-05-09T22:52:46;99662.91;;;13.64;100.00
4858;BME280;58975;51.978;8.472;2023-05-09T22:57:42;99666.75;;;13.62;100.00
4858;BME280;58975;51.978;8.472;2023-05-09T23:02:39;99658.41;;;13.65;100.00
4858;BME280;58975;51.978;8.472;2023-05-09T23:07:35;99659.09;;;13.67;100.00
4858;BME280;58975;51.978;8.472;2023-05-09T23:12:32;99664.03;;;13.54;100.00
4858;BME280;58975;51.978;8.472;2023-05-09T23:17:29;99652.16;;;13.48;100.00
4858;BME280;58975;51.978;8.472;2023-05-09T23:22:25;99656.34;;;13.51;100.00
4858;BME280;58975;51.978;8.472;2023-05-09T23:27:22;99654.66;;;13.50;100.00
4858;BME280;58975;51.978;8.472;2023-05-09T23:32:18;99658.44;;;13.39;100.00
4858;BME280;58975;51.978;8.472;2023-05-09T23:37:15;99652.38;;;13.29;100.00
4858;BME280;58975;51.978;8.472;2023-05-09T23:42:11;99656.81;;;13.46;100.00
4858;BME280;58975;51.978;8.472;2023-05-09T23:47:07;99659.16;;;13.49;100.00
4858;BME280;58975;51.978;8.472;2023-05-09T23:52:04;99653.38;;;13.62;100.00
4858;BME280;58975;51.978;8.472;2023-05-09T23:57:00;99660.03;;;13.58;100.00
